createdAt,value
2019-03-24T00:01:42.610Z,89.70
2019-03-24T00:04:11.119Z,89.70
2019-03-24T00:06:39.560Z,89.50
2019-03-24T00:09:08.642Z,89.40
2019-03-24T00:11:37.070Z,89.90
2019-03-24T00:14:06.061Z,90.10
2019-03-24T00:16:34.501Z,89.50
2019-03-24T00:19:02.926Z,89.80
2019-03-24T00:21:32.895Z,90.00
2019-03-24T00:24:01.356Z,90.00
2019-03-24T00:26:29.790Z,90.00
2019-03-24T00:28:58.242Z,89.60
2019-03-24T00:31:26.698Z,89.50
2019-03-24T00:33:55.133Z,87.90
2019-03-24T00:36:23.598Z,88.90
2019-03-24T00:38:52.170Z,89.00
2019-03-24T00:41:20.623Z,89.50
2019-03-24T00:43:49.100Z,90.50
2019-03-24T00:46:17.591Z,90.70
2019-03-24T00:48:46.039Z,90.50
2019-03-24T00:51:14.561Z,90.70
2019-03-24T00:53:43.032Z,90.60
2019-03-24T00:56:11.514Z,90.50
2019-03-24T00:58:39.983Z,90.40
2019-03-24T01:01:09.109Z,90.60
2019-03-24T01:03:37.625Z,90.60
2019-03-24T01:06:06.209Z,90.30
2019-03-24T01:08:34.647Z,90.80
2019-03-24T01:11:03.070Z,90.80
2019-03-24T01:13:31.502Z,91.10
2019-03-24T01:16:02.055Z,91.10
2019-03-24T01:18:30.489Z,90.90
2019-03-24T01:20:58.938Z,90.90
2019-03-24T01:23:28.534Z,90.20
2019-03-24T01:25:56.999Z,90.50
2019-03-24T01:28:25.413Z,90.20
2019-03-24T01:30:53.842Z,91.10
2019-03-24T01:33:22.282Z,90.80
2019-03-24T01:35:50.734Z,90.60
2019-03-24T01:38:19.185Z,90.70
2019-03-24T01:40:47.593Z,90.60
2019-03-24T01:43:16.120Z,91.30
2019-03-24T01:45:44.572Z,91.40
2019-03-24T01:48:12.997Z,91.30
2019-03-24T01:50:43.044Z,91.50
2019-03-24T01:53:11.497Z,91.40
2019-03-24T01:55:39.935Z,91.00
2019-03-24T01:58:08.354Z,90.90
2019-03-24T02:00:36.785Z,91.00
2019-03-24T02:03:05.281Z,90.80
2019-03-24T02:05:33.749Z,90.90
2019-03-24T02:08:02.162Z,90.90
2019-03-24T02:10:30.602Z,91.10
2019-03-24T02:12:59.025Z,91.20
2019-03-24T02:15:27.488Z,91.20
2019-03-24T02:17:55.937Z,91.30
2019-03-24T02:20:24.381Z,91.10
2019-03-24T02:22:52.861Z,91.20
2019-03-24T02:25:21.309Z,91.40
2019-03-24T02:28:09.078Z,91.00
2019-03-24T02:30:37.510Z,91.20
2019-03-24T02:33:05.959Z,90.60
2019-03-24T02:35:34.394Z,91.00
2019-03-24T02:38:02.843Z,91.40
2019-03-24T02:40:31.269Z,91.60
2019-03-24T02:42:59.722Z,91.90
2019-03-24T02:45:28.136Z,91.40
2019-03-24T02:47:56.550Z,91.50
2019-03-24T02:50:25.029Z,91.90
2019-03-24T02:52:53.455Z,92.60
2019-03-24T02:55:21.897Z,92.50
2019-03-24T02:57:50.322Z,92.80
2019-03-24T03:00:19.111Z,92.50
2019-03-24T03:02:47.747Z,92.50
2019-03-24T03:05:16.247Z,92.40
2019-03-24T03:07:44.692Z,92.50
2019-03-24T03:10:13.567Z,92.30
2019-03-24T03:12:42.011Z,92.50
2019-03-24T03:15:11.584Z,92.40
2019-03-24T03:17:40.210Z,92.30
2019-03-24T03:20:09.222Z,92.20
2019-03-24T03:22:37.666Z,92.20
2019-03-24T03:25:07.755Z,91.90
2019-03-24T03:27:36.310Z,91.80
2019-03-24T03:30:07.899Z,91.70
2019-03-24T03:32:36.490Z,92.00
2019-03-24T03:35:07.472Z,92.20
2019-03-24T03:37:35.981Z,92.10
2019-03-24T03:40:06.867Z,91.90
2019-03-24T03:42:35.334Z,91.80
2019-03-24T03:45:04.893Z,91.70
2019-03-24T03:47:33.345Z,92.00
2019-03-24T03:50:01.885Z,92.10
2019-03-24T03:52:30.381Z,92.10
2019-03-24T03:54:58.819Z,92.10
2019-03-24T03:57:27.275Z,92.10
2019-03-24T03:59:55.779Z,92.00
2019-03-24T04:02:24.211Z,91.90
2019-03-24T04:04:52.658Z,91.80
2019-03-24T04:07:21.167Z,91.70
2019-03-24T04:09:49.597Z,91.80
2019-03-24T04:12:18.029Z,91.80
2019-03-24T04:14:46.472Z,91.70
2019-03-24T04:17:14.891Z,91.60
2019-03-24T04:19:43.342Z,91.30
2019-03-24T04:22:11.782Z,91.80
2019-03-24T04:24:40.346Z,91.80
2019-03-24T04:27:08.783Z,92.00
2019-03-24T04:29:37.235Z,92.10
2019-03-24T04:32:05.651Z,92.20
2019-03-24T04:34:34.079Z,92.20
2019-03-24T04:37:02.595Z,92.10
2019-03-24T04:39:31.041Z,91.90
2019-03-24T04:41:59.478Z,91.80
2019-03-24T04:44:28.486Z,91.80
2019-03-24T04:46:56.907Z,92.00
2019-03-24T04:49:25.325Z,92.30
2019-03-24T04:52:13.193Z,92.40
2019-03-24T04:54:41.631Z,92.30
2019-03-24T04:57:10.068Z,92.30
2019-03-24T04:59:38.481Z,92.30
2019-03-24T05:02:06.955Z,92.20
2019-03-24T05:04:35.392Z,92.20
2019-03-24T05:07:04.188Z,92.10
2019-03-24T05:09:32.636Z,92.10
2019-03-24T05:12:01.107Z,92.10
2019-03-24T05:14:29.553Z,92.20
2019-03-24T05:16:57.986Z,92.00
2019-03-24T05:19:26.469Z,92.10
2019-03-24T05:21:54.933Z,92.20
2019-03-24T05:24:23.374Z,92.30
2019-03-24T05:26:51.889Z,92.30
2019-03-24T05:29:20.658Z,92.20
2019-03-24T05:31:49.091Z,92.20
2019-03-24T05:34:17.571Z,92.10
2019-03-24T05:36:46.046Z,91.70
2019-03-24T05:39:14.497Z,92.10
2019-03-24T05:41:42.932Z,92.20
2019-03-24T05:44:11.374Z,92.20
2019-03-24T05:46:39.816Z,92.00
2019-03-24T05:49:09.774Z,92.30
2019-03-24T05:51:38.229Z,92.50
2019-03-24T05:54:06.668Z,92.70
2019-03-24T05:56:35.126Z,92.70
2019-03-24T05:59:03.606Z,92.70
2019-03-24T06:01:32.039Z,92.70
2019-03-24T06:04:00.476Z,92.60
2019-03-24T06:06:28.917Z,92.60
2019-03-24T06:08:57.349Z,92.50
2019-03-24T06:11:25.797Z,92.50
2019-03-24T06:13:54.218Z,92.70
2019-03-24T06:16:22.665Z,92.30
2019-03-24T06:18:51.104Z,92.20
2019-03-24T06:21:19.525Z,92.20
2019-03-24T06:23:47.953Z,92.30
2019-03-24T06:26:16.408Z,92.10
2019-03-24T06:28:44.822Z,91.80
2019-03-24T06:31:13.269Z,91.90
2019-03-24T06:33:41.714Z,92.00
2019-03-24T06:36:10.147Z,92.10
2019-03-24T06:38:38.591Z,92.10
2019-03-24T06:41:07.010Z,92.20
2019-03-24T06:43:35.441Z,92.30
2019-03-24T06:46:03.954Z,92.30
2019-03-24T06:48:32.391Z,92.20
2019-03-24T06:51:00.829Z,92.20
2019-03-24T06:53:29.263Z,92.30
2019-03-24T06:55:57.714Z,92.30
2019-03-24T06:58:26.142Z,92.10
2019-03-24T07:00:54.650Z,92.10
2019-03-24T07:03:42.417Z,92.20
2019-03-24T07:06:10.842Z,92.00
2019-03-24T07:08:39.296Z,92.10
2019-03-24T07:11:13.392Z,92.30
2019-03-24T07:13:37.897Z,92.50
2019-03-24T07:16:06.326Z,92.60
2019-03-24T07:18:34.750Z,92.70
2019-03-24T07:21:03.200Z,92.80
2019-03-24T07:23:31.625Z,92.60
2019-03-24T07:26:00.082Z,92.60
2019-03-24T07:28:28.513Z,92.60
2019-03-24T07:30:56.957Z,92.40
2019-03-24T07:33:25.388Z,92.40
2019-03-24T07:35:53.802Z,92.30
2019-03-24T07:38:22.234Z,92.20
2019-03-24T07:40:50.653Z,92.10
2019-03-24T07:43:19.081Z,92.10
2019-03-24T07:45:47.510Z,91.90
2019-03-24T07:48:19.413Z,91.80
2019-03-24T07:50:46.297Z,91.90
2019-03-24T07:53:14.732Z,91.70
2019-03-24T07:55:43.177Z,91.70
2019-03-24T07:58:11.612Z,91.50
2019-03-24T08:00:40.043Z,91.30
2019-03-24T08:03:08.485Z,91.20
2019-03-24T08:05:36.919Z,91.30
2019-03-24T08:08:05.337Z,91.40
2019-03-24T08:10:33.930Z,91.40
2019-03-24T08:13:02.365Z,91.30
2019-03-24T08:15:30.869Z,91.10
2019-03-24T08:17:59.304Z,91.20
2019-03-24T08:20:27.736Z,91.10
2019-03-24T08:22:56.159Z,91.20
2019-03-24T08:25:24.586Z,91.20
2019-03-24T08:27:53.024Z,91.20
2019-03-24T08:30:30.111Z,91.20
2019-03-24T08:32:58.537Z,90.60
2019-03-24T08:35:26.962Z,90.50
2019-03-24T08:37:55.389Z,90.50
2019-03-24T08:40:23.819Z,90.30
2019-03-24T08:42:52.259Z,90.20
2019-03-24T08:45:27.978Z,90.40
2019-03-24T08:47:58.257Z,90.40
2019-03-24T08:50:26.885Z,89.30
2019-03-24T08:52:55.438Z,89.80
2019-03-24T08:55:23.877Z,89.60
2019-03-24T08:57:52.309Z,89.40
2019-03-24T09:00:30.213Z,89.70
2019-03-24T09:02:50.906Z,90.00
2019-03-24T09:05:19.318Z,89.80
2019-03-24T09:07:47.750Z,89.20
2019-03-24T09:10:16.314Z,89.50
2019-03-24T09:12:44.754Z,87.00
2019-03-24T09:15:13.436Z,86.80
2019-03-24T09:17:41.984Z,87.70
2019-03-24T09:20:10.653Z,88.50
2019-03-24T09:22:39.088Z,88.70
2019-03-24T09:25:07.958Z,88.20
2019-03-24T09:27:36.473Z,87.30
2019-03-24T09:30:07.497Z,86.80
2019-03-24T09:32:35.945Z,85.00
2019-03-24T09:35:05.713Z,84.80
2019-03-24T09:37:34.141Z,84.70
2019-03-24T09:40:02.582Z,84.70
2019-03-24T09:42:31.024Z,82.80
2019-03-24T09:44:59.462Z,84.90
2019-03-24T09:47:27.904Z,83.50
2019-03-24T09:49:56.342Z,83.80
2019-03-24T09:52:24.781Z,84.20
2019-03-24T09:54:53.224Z,83.80
2019-03-24T09:57:21.667Z,83.00
2019-03-24T09:59:50.098Z,82.30
2019-03-24T10:02:18.520Z,83.30
2019-03-24T10:04:46.955Z,84.80
2019-03-24T10:07:15.391Z,83.10
2019-03-24T10:09:43.830Z,83.30
2019-03-24T10:12:12.255Z,83.70
2019-03-24T10:14:40.678Z,82.00
2019-03-24T10:17:09.118Z,80.40
2019-03-24T10:19:37.565Z,78.40
2019-03-24T10:22:06.000Z,79.20
2019-03-24T10:24:34.448Z,81.20
2019-03-24T10:27:02.896Z,78.80
2019-03-24T10:29:31.352Z,79.70
2019-03-24T10:31:59.770Z,79.10
2019-03-24T10:34:28.193Z,76.40
2019-03-24T10:36:56.631Z,74.80
2019-03-24T10:39:25.053Z,75.90
2019-03-24T10:41:53.504Z,75.70
2019-03-24T10:44:21.941Z,76.30
2019-03-24T10:46:50.365Z,75.90
2019-03-24T10:49:24.790Z,74.90
2019-03-24T10:51:49.055Z,76.30
2019-03-24T10:54:17.496Z,75.00
2019-03-24T10:56:45.944Z,75.20
2019-03-24T10:59:14.376Z,75.80
2019-03-24T11:01:42.869Z,76.20
2019-03-24T11:04:11.408Z,76.80
2019-03-24T11:06:39.901Z,76.20
2019-03-24T11:09:08.345Z,76.00
2019-03-24T11:11:36.773Z,73.40
2019-03-24T11:14:05.283Z,73.50
2019-03-24T11:16:33.704Z,70.60
2019-03-24T11:19:02.149Z,72.90
2019-03-24T11:21:30.696Z,73.80
2019-03-24T11:23:59.129Z,71.80
2019-03-24T11:26:27.576Z,71.20
2019-03-24T11:28:55.999Z,72.90
2019-03-24T11:31:24.481Z,67.20
2019-03-24T11:33:53.017Z,68.50
2019-03-24T11:36:21.449Z,69.60
2019-03-24T11:38:49.878Z,70.60
2019-03-24T11:41:18.325Z,71.70
2019-03-24T11:43:46.834Z,71.60
2019-03-24T11:46:15.276Z,70.40
2019-03-24T11:48:43.698Z,69.80
2019-03-24T11:51:12.125Z,67.00
2019-03-24T11:53:40.576Z,66.00
2019-03-24T11:56:09.012Z,63.70
2019-03-24T11:58:37.493Z,63.70
2019-03-24T12:01:05.966Z,66.40
2019-03-24T12:03:34.404Z,62.90
2019-03-24T12:06:13.634Z,63.50
2019-03-24T12:08:53.878Z,63.30
2019-03-24T12:11:22.322Z,63.00
2019-03-24T12:13:50.748Z,64.00
2019-03-24T12:16:19.202Z,63.00
2019-03-24T12:18:47.641Z,63.60
2019-03-24T12:21:16.075Z,65.00
2019-03-24T12:23:44.503Z,66.20
2019-03-24T12:26:13.022Z,64.70
2019-03-24T12:28:41.464Z,65.40
2019-03-24T12:31:09.904Z,63.00
2019-03-24T12:33:38.365Z,62.10
2019-03-24T12:36:06.781Z,59.50
2019-03-24T12:38:35.245Z,61.10
2019-03-24T12:41:03.692Z,60.10
2019-03-24T12:43:32.154Z,59.60
2019-03-24T12:46:00.590Z,59.50
2019-03-24T12:48:29.118Z,60.60
2019-03-24T12:50:57.741Z,59.70
2019-03-24T12:53:26.189Z,60.00
2019-03-24T12:55:54.673Z,59.80
2019-03-24T12:58:23.118Z,61.30
2019-03-24T13:00:51.554Z,60.40
2019-03-24T13:03:19.978Z,62.00
2019-03-24T13:05:48.434Z,62.20
2019-03-24T13:08:17.270Z,61.90
2019-03-24T13:10:46.725Z,59.10
2019-03-24T13:13:18.080Z,59.90
2019-03-24T13:15:46.710Z,62.30
2019-03-24T13:18:15.145Z,62.70
2019-03-24T13:20:43.666Z,61.40
2019-03-24T13:23:12.101Z,61.90
2019-03-24T13:25:40.544Z,59.80
2019-03-24T13:28:08.968Z,59.70
2019-03-24T13:30:37.424Z,61.70
2019-03-24T13:33:05.922Z,61.00
2019-03-24T13:35:35.244Z,58.10
2019-03-24T13:38:03.675Z,58.40
2019-03-24T13:40:32.145Z,59.40
2019-03-24T13:43:00.583Z,60.60
2019-03-24T13:45:29.078Z,60.10
2019-03-24T13:47:57.555Z,61.10
2019-03-24T13:50:31.445Z,62.10
2019-03-24T13:52:58.095Z,62.60
2019-03-24T13:55:32.531Z,61.80
2019-03-24T13:58:01.147Z,61.10
2019-03-24T14:00:29.589Z,62.70
2019-03-24T14:02:58.294Z,61.10
2019-03-24T14:05:26.709Z,62.10
2019-03-24T14:07:55.164Z,61.50
2019-03-24T14:10:23.666Z,59.70
2019-03-24T14:12:52.107Z,59.00
2019-03-24T14:15:20.580Z,57.40
2019-03-24T14:17:49.028Z,58.60
2019-03-24T14:20:17.797Z,59.60
2019-03-24T14:22:46.301Z,62.20
2019-03-24T14:25:14.796Z,64.60
2019-03-24T14:27:43.256Z,65.20
2019-03-24T14:30:21.749Z,65.90
2019-03-24T14:32:50.207Z,65.00
2019-03-24T14:35:18.656Z,65.40
2019-03-24T14:37:47.119Z,64.80
2019-03-24T14:40:17.167Z,62.70
2019-03-24T14:42:45.677Z,64.00
2019-03-24T14:45:14.261Z,65.40
2019-03-24T14:47:42.764Z,62.60
2019-03-24T14:50:11.726Z,64.10
2019-03-24T14:52:40.189Z,63.20
2019-03-24T14:55:08.781Z,61.10
2019-03-24T14:57:37.198Z,61.10
2019-03-24T15:00:07.659Z,60.10
2019-03-24T15:02:36.102Z,61.60
2019-03-24T15:05:07.105Z,60.60
2019-03-24T15:07:35.581Z,60.90
2019-03-24T15:10:06.462Z,60.40
2019-03-24T15:12:34.913Z,59.90
2019-03-24T15:15:03.921Z,60.70
2019-03-24T15:17:32.434Z,61.40
2019-03-24T15:20:00.894Z,60.40
2019-03-24T15:22:29.413Z,62.70
2019-03-24T15:24:57.834Z,63.70
2019-03-24T15:27:26.280Z,63.70
2019-03-24T15:29:54.742Z,65.70
2019-03-24T15:32:23.156Z,65.20
2019-03-24T15:34:51.617Z,64.90
2019-03-24T15:37:20.038Z,65.00
2019-03-24T15:39:48.496Z,66.20
2019-03-24T15:42:16.942Z,66.40
2019-03-24T15:44:45.385Z,65.50
2019-03-24T15:47:16.402Z,66.50
2019-03-24T15:49:44.918Z,66.40
2019-03-24T15:52:13.377Z,67.20
2019-03-24T15:54:41.806Z,67.60
2019-03-24T15:57:10.251Z,69.10
2019-03-24T15:59:38.686Z,70.20
2019-03-24T16:02:07.152Z,69.60
2019-03-24T16:04:35.656Z,70.30
2019-03-24T16:07:04.148Z,70.00
2019-03-24T16:09:32.784Z,69.00
2019-03-24T16:12:01.225Z,69.60
2019-03-24T16:14:29.652Z,70.60
2019-03-24T16:16:58.105Z,70.60
2019-03-24T16:19:26.528Z,70.90
2019-03-24T16:21:54.977Z,70.60
2019-03-24T16:24:23.398Z,70.10
2019-03-24T16:26:51.833Z,68.40
2019-03-24T16:29:21.933Z,67.70
2019-03-24T16:31:50.418Z,68.90
2019-03-24T16:34:18.880Z,69.70
2019-03-24T16:36:47.337Z,69.80
2019-03-24T16:39:15.850Z,69.20
2019-03-24T16:41:44.288Z,69.60
2019-03-24T16:44:12.773Z,69.90
2019-03-24T16:46:41.243Z,69.80
2019-03-24T16:49:09.670Z,69.40
2019-03-24T16:51:39.736Z,69.80
2019-03-24T16:54:08.289Z,70.70
2019-03-24T16:56:36.728Z,71.80
2019-03-24T16:59:05.230Z,70.60
2019-03-24T17:01:33.669Z,71.40
2019-03-24T17:04:02.102Z,72.30
2019-03-24T17:06:30.534Z,71.50
2019-03-24T17:08:58.979Z,72.00
2019-03-24T17:11:27.413Z,72.90
2019-03-24T17:13:55.882Z,73.30
2019-03-24T17:16:24.362Z,73.50
2019-03-24T17:18:52.822Z,73.50
2019-03-24T17:21:22.285Z,74.10
2019-03-24T17:23:50.712Z,74.70
2019-03-24T17:26:19.150Z,74.60
2019-03-24T17:28:47.580Z,76.40
2019-03-24T17:31:16.054Z,76.80
2019-03-24T17:33:44.494Z,77.10
2019-03-24T17:36:13.009Z,76.60
2019-03-24T17:38:41.448Z,77.50
2019-03-24T17:41:09.869Z,76.60
2019-03-24T17:43:38.321Z,76.70
2019-03-24T17:46:06.750Z,75.50
2019-03-24T17:48:35.209Z,75.20
2019-03-24T17:51:03.773Z,76.90
2019-03-24T17:53:32.214Z,77.30
2019-03-24T17:56:00.647Z,77.80
2019-03-24T17:58:29.067Z,77.10
2019-03-24T18:00:57.899Z,78.00
2019-03-24T18:03:26.321Z,78.00
2019-03-24T18:05:55.242Z,78.30
2019-03-24T18:08:23.689Z,78.80
2019-03-24T18:10:52.141Z,79.20
2019-03-24T18:13:20.584Z,78.60
2019-03-24T18:15:49.035Z,79.30
2019-03-24T18:18:17.484Z,79.20
2019-03-24T18:20:45.901Z,79.40
2019-03-24T18:23:14.342Z,79.30
2019-03-24T18:25:42.767Z,79.60
2019-03-24T18:28:11.194Z,78.00
2019-03-24T18:30:39.645Z,77.80
2019-03-24T18:33:08.677Z,77.90
2019-03-24T18:35:37.151Z,77.10
2019-03-24T18:38:05.860Z,77.30
2019-03-24T18:40:34.485Z,77.70
2019-03-24T18:43:02.916Z,78.40
2019-03-24T18:45:31.367Z,78.40
2019-03-24T18:47:59.803Z,78.40
2019-03-24T18:50:28.333Z,79.30
2019-03-24T18:52:56.752Z,78.60
2019-03-24T18:55:25.206Z,78.50
2019-03-24T18:57:53.643Z,77.90
2019-03-24T19:00:22.138Z,77.60
2019-03-24T19:02:50.580Z,76.20
2019-03-24T19:05:19.153Z,76.10
2019-03-24T19:07:47.586Z,76.50
2019-03-24T19:10:16.460Z,76.80
2019-03-24T19:12:44.886Z,75.80
2019-03-24T19:15:14.672Z,75.40
2019-03-24T19:17:43.095Z,75.50
2019-03-24T19:20:11.870Z,75.90
2019-03-24T19:22:40.361Z,76.20
2019-03-24T19:25:09.259Z,76.60
2019-03-24T19:27:37.674Z,76.50
2019-03-24T19:30:09.138Z,75.90
2019-03-24T19:32:37.653Z,76.40
2019-03-24T19:35:07.350Z,76.90
2019-03-24T19:37:36.657Z,76.50
2019-03-24T19:40:08.375Z,75.90
2019-03-24T19:42:36.816Z,75.70
2019-03-24T19:45:06.385Z,75.70
2019-03-24T19:47:34.821Z,76.40
2019-03-24T19:50:04.435Z,76.40
2019-03-24T19:52:32.868Z,75.20
2019-03-24T19:55:01.322Z,75.90
2019-03-24T19:57:29.756Z,76.10
2019-03-24T19:59:58.196Z,76.60
2019-03-24T20:02:26.660Z,75.70
2019-03-24T20:04:55.092Z,75.70
2019-03-24T20:07:23.579Z,76.00
2019-03-24T20:09:52.022Z,76.40
2019-03-24T20:12:20.443Z,76.20
2019-03-24T20:14:48.869Z,75.50
2019-03-24T20:17:17.317Z,75.90
2019-03-24T20:19:45.736Z,75.90
2019-03-24T20:22:14.184Z,74.90
2019-03-24T20:24:42.628Z,74.80
2019-03-24T20:27:11.143Z,74.50
2019-03-24T20:29:39.566Z,73.90
2019-03-24T20:32:08.067Z,73.80
2019-03-24T20:34:36.516Z,73.80
2019-03-24T20:37:05.021Z,74.70
2019-03-24T20:39:33.545Z,74.90
2019-03-24T20:42:02.057Z,74.90
2019-03-24T20:44:30.492Z,75.70
2019-03-24T20:46:58.925Z,74.80
2019-03-24T20:49:27.369Z,75.40
2019-03-24T20:51:55.812Z,75.30
2019-03-24T20:54:24.231Z,75.00
2019-03-24T20:56:52.689Z,75.30
2019-03-24T20:59:21.122Z,75.90
2019-03-24T21:01:49.538Z,76.20
2019-03-24T21:04:20.201Z,77.10
2019-03-24T21:06:48.132Z,77.10
2019-03-24T21:09:16.560Z,77.50
2019-03-24T21:11:44.991Z,77.70
2019-03-24T21:14:13.438Z,77.80
2019-03-24T21:16:41.859Z,77.80
2019-03-24T21:19:10.309Z,78.40
2019-03-24T21:21:38.733Z,79.10
2019-03-24T21:24:07.262Z,79.50
2019-03-24T21:26:35.704Z,80.10
2019-03-24T21:29:04.139Z,80.70
2019-03-24T21:31:32.584Z,80.50
2019-03-24T21:34:01.028Z,80.80
2019-03-24T21:36:29.477Z,81.30
2019-03-24T21:38:57.920Z,81.10
2019-03-24T21:41:26.340Z,81.20
2019-03-24T21:43:54.793Z,81.20
2019-03-24T21:46:23.223Z,81.50
2019-03-24T21:48:51.633Z,81.80
2019-03-24T21:51:20.101Z,82.20
2019-03-24T21:53:48.515Z,82.00
2019-03-24T21:56:16.950Z,81.90
2019-03-24T21:58:45.394Z,82.70
2019-03-24T22:01:13.809Z,82.70
2019-03-24T22:03:42.237Z,83.10
2019-03-24T22:06:10.660Z,83.10
2019-03-24T22:08:39.102Z,82.90
2019-03-24T22:11:07.617Z,83.10
2019-03-24T22:13:36.053Z,83.40
2019-03-24T22:16:04.479Z,83.60
2019-03-24T22:18:32.904Z,83.40
2019-03-24T22:21:01.367Z,84.00
2019-03-24T22:23:29.805Z,83.30
2019-03-24T22:25:58.243Z,83.30
2019-03-24T22:28:26.684Z,83.40
2019-03-24T22:30:55.117Z,83.60
2019-03-24T22:33:23.569Z,83.90
2019-03-24T22:35:51.987Z,84.40
2019-03-24T22:38:20.437Z,84.40
2019-03-24T22:40:48.853Z,84.60
2019-03-24T22:43:17.270Z,85.00
2019-03-24T22:45:45.693Z,84.90
2019-03-24T22:48:14.121Z,85.10
2019-03-24T22:50:42.569Z,84.90
2019-03-24T22:53:10.988Z,85.30
2019-03-24T22:55:39.425Z,85.60
2019-03-24T22:58:07.868Z,85.20
2019-03-24T23:00:43.941Z,85.10
2019-03-24T23:03:12.404Z,84.20
2019-03-24T23:05:40.889Z,84.50
2019-03-24T23:08:09.318Z,84.20
2019-03-24T23:10:37.764Z,84.50
2019-03-24T23:13:06.194Z,84.90
2019-03-24T23:15:34.618Z,85.30
2019-03-24T23:18:03.052Z,85.50
2019-03-24T23:20:31.478Z,85.90
2019-03-24T23:22:59.918Z,85.80
2019-03-24T23:25:28.350Z,85.80
2019-03-24T23:27:56.791Z,85.90
2019-03-24T23:30:25.218Z,85.30
2019-03-24T23:32:53.681Z,85.00
2019-03-24T23:35:22.110Z,84.80
2019-03-24T23:37:50.569Z,84.60
2019-03-24T23:40:18.982Z,84.80
2019-03-24T23:42:47.434Z,84.70
2019-03-24T23:45:15.938Z,84.50
2019-03-24T23:47:44.368Z,83.90
2019-03-24T23:50:12.954Z,84.30
2019-03-24T23:52:41.396Z,83.80
2019-03-24T23:55:11.418Z,84.00
2019-03-24T23:57:39.850Z,84.60
